Time;durP1;ratioP1;P1;durP2;ratioP2;P2;SDS_P1;SDS_P2;PMS_P1;PMS_P2;Temp;Humidity;BMP_temperature;BMP_pressure;BME280_temperature;BME280_humidity;BME280_pressure;Samples;Min_cycle;Max_cycle;Signal;HPM_P1;HPM_P2
2022/04/15 00:01:22;;;;;;;33.28;11.38;;;6.60;99.90;;;;;;5138053;27;20134;-73
2022/04/15 00:03:49;;;;;;;42.83;11.45;;;6.60;99.90;;;;;;5120381;27;20050;-73
2022/04/15 00:06:16;;;;;;;31.58;11.50;;;6.50;99.90;;;;;;5156952;27;20043;-73
2022/04/15 00:08:42;;;;;;;37.08;11.07;;;6.50;99.90;;;;;;5137390;27;20482;-73
2022/04/15 00:11:09;;;;;;;26.13;10.38;;;6.50;99.90;;;;;;5137232;27;20470;-72
2022/04/15 00:13:35;;;;;;;30.77;10.38;;;6.40;99.90;;;;;;5137356;27;20470;-74
2022/04/15 00:16:02;;;;;;;30.55;10.07;;;6.40;99.90;;;;;;5156276;27;20047;-73
2022/04/15 00:18:29;;;;;;;29.70;10.05;;;6.40;99.90;;;;;;5137652;27;20505;-73
2022/04/15 00:20:54;;;;;;;33.83;10.82;;;6.30;99.90;;;;;;5156359;27;20043;-74
2022/04/15 00:23:24;;;;;;;32.38;10.98;;;6.30;99.90;;;;;;5137134;27;20042;-73
2022/04/15 00:25:50;;;;;;;30.38;9.98;;;6.30;99.90;;;;;;5156010;27;20134;-74
2022/04/15 00:28:16;;;;;;;34.88;10.93;;;6.30;99.90;;;;;;5137131;27;20111;-73
2022/04/15 00:30:42;;;;;;;34.78;10.77;;;6.30;99.90;;;;;;5155795;27;20042;-73
2022/04/15 00:33:08;;;;;;;35.38;11.00;;;6.30;99.90;;;;;;5155438;27;20568;-73
2022/04/15 00:35:34;;;;;;;38.10;10.70;;;6.20;99.90;;;;;;5136739;27;20064;-73
2022/04/15 00:38:00;;;;;;;36.67;11.02;;;6.30;99.90;;;;;;5155607;27;20046;-72
2022/04/15 00:40:26;;;;;;;32.55;11.30;;;6.20;99.90;;;;;;5155320;27;20038;-72
2022/04/15 00:42:51;;;;;;;33.55;11.00;;;6.20;99.90;;;;;;5155215;27;20470;-72
2022/04/15 00:45:17;;;;;;;32.97;11.10;;;6.20;99.90;;;;;;5120323;27;20089;-73
2022/04/15 00:47:53;;;;;;;30.95;10.38;;;6.10;99.90;;;;;;5155571;27;20043;-73
2022/04/15 00:50:26;;;;;;;32.22;10.75;;;6.10;99.90;;;;;;5120052;27;20107;-73
2022/04/15 00:52:54;;;;;;;36.72;11.23;;;6.10;99.90;;;;;;5136670;27;20229;-71
2022/04/15 00:55:23;;;;;;;32.65;11.07;;;6.00;99.90;;;;;;5136667;27;20050;-72
2022/04/15 00:57:51;;;;;;;29.05;10.65;;;6.00;99.90;;;;;;5136625;27;20113;-72
2022/04/15 01:00:19;;;;;;;36.97;11.20;;;6.00;99.90;;;;;;5137033;27;20051;-73
2022/04/15 01:02:45;;;;;;;34.85;11.27;;;5.90;99.90;;;;;;5136379;27;20047;-74
2022/04/15 01:05:12;;;;;;;35.72;11.27;;;5.90;99.90;;;;;;5154908;27;20175;-73
2022/04/15 01:07:40;;;;;;;30.17;10.50;;;5.80;99.90;;;;;;5136597;27;20042;-72
2022/04/15 01:10:11;;;;;;;33.75;11.25;;;5.80;99.90;;;;;;5155156;27;20049;-73
2022/04/15 01:12:39;;;;;;;30.73;10.88;;;5.70;99.90;;;;;;5155261;27;20308;-75
2022/04/15 01:15:08;;;;;;;26.10;10.30;;;5.70;99.90;;;;;;5136690;27;20579;-74
2022/04/15 01:17:34;;;;;;;29.13;10.43;;;5.60;99.90;;;;;;5136306;27;20077;-72
2022/04/15 01:20:02;;;;;;;33.50;10.18;;;5.60;99.90;;;;;;5155784;27;20043;-73
2022/04/15 01:22:40;;;;;;;26.45;10.40;;;5.50;99.90;;;;;;5136807;27;20055;-73
2022/04/15 01:25:07;;;;;;;26.45;10.48;;;5.50;99.90;;;;;;5154993;27;20031;-71
2022/04/15 01:27:35;;;;;;;25.92;8.60;;;5.40;99.90;;;;;;5136281;27;20125;-72
2022/04/15 01:30:01;;;;;;;26.33;8.57;;;5.40;99.90;;;;;;5136028;27;20052;-73
2022/04/15 01:32:27;;;;;;;19.53;8.10;;;5.40;99.90;;;;;;5136177;27;20111;-73
2022/04/15 01:34:53;;;;;;;20.13;7.65;;;5.30;99.90;;;;;;5136076;27;20846;-74
2022/04/15 01:37:22;;;;;;;29.95;9.90;;;5.30;99.90;;;;;;5118642;27;20117;-74
2022/04/15 01:39:48;;;;;;;24.30;9.88;;;5.20;99.90;;;;;;5135331;27;20080;-75
2022/04/15 01:42:16;;;;;;;28.27;10.40;;;5.20;99.90;;;;;;5136566;27;20061;-71
2022/04/15 01:44:43;;;;;;;26.92;10.88;;;5.20;99.90;;;;;;5154389;27;20190;-73
2022/04/15 01:47:10;;;;;;;28.88;10.10;;;5.30;99.90;;;;;;5136289;27;20042;-73
2022/04/15 01:49:37;;;;;;;26.38;10.60;;;5.40;99.90;;;;;;5154868;27;20047;-72
2022/04/15 01:52:04;;;;;;;25.27;9.18;;;5.40;99.90;;;;;;5138098;27;20068;-73
2022/04/15 01:54:31;;;;;;;32.50;10.52;;;5.40;99.90;;;;;;5122774;27;20046;-73
2022/04/15 01:56:57;;;;;;;23.05;9.13;;;5.50;99.90;;;;;;5155347;27;20139;-73
2022/04/15 01:59:24;;;;;;;26.98;9.90;;;5.50;99.90;;;;;;5154817;27;20046;-73
2022/04/15 02:01:54;;;;;;;26.50;9.82;;;5.60;99.90;;;;;;5155183;27;20047;-74
2022/04/15 02:04:24;;;;;;;23.70;10.13;;;5.60;99.90;;;;;;5119581;27;20046;-73
2022/04/15 02:06:50;;;;;;;27.67;10.55;;;5.70;99.90;;;;;;5154894;27;20463;-74
2022/04/15 02:09:16;;;;;;;23.85;10.35;;;5.70;99.90;;;;;;5154477;27;20370;-71
2022/04/15 02:11:43;;;;;;;31.80;11.02;;;5.80;99.90;;;;;;5154751;27;20038;-75
2022/04/15 02:14:09;;;;;;;34.78;12.85;;;5.90;99.90;;;;;;5135639;27;20049;-73
2022/04/15 02:16:35;;;;;;;33.22;11.25;;;5.80;99.90;;;;;;5135715;27;20398;-71
2022/04/15 02:19:01;;;;;;;29.55;10.90;;;5.90;99.90;;;;;;5154409;27;20539;-72
2022/04/15 02:21:27;;;;;;;32.20;12.23;;;6.00;99.90;;;;;;5153871;27;20042;-74
2022/04/15 02:23:52;;;;;;;27.05;11.18;;;6.00;99.90;;;;;;5154021;27;20049;-74
2022/04/15 02:26:18;;;;;;;32.97;12.00;;;6.10;99.90;;;;;;5135515;27;20063;-72
2022/04/15 02:28:44;;;;;;;29.20;11.25;;;6.10;99.90;;;;;;5154172;27;20506;-73
2022/04/15 02:31:10;;;;;;;34.10;12.15;;;6.10;99.90;;;;;;5153802;27;20081;-73
2022/04/15 02:33:35;;;;;;;32.65;13.25;;;6.10;99.90;;;;;;5154246;27;20125;-73
2022/04/15 02:36:01;;;;;;;28.55;11.75;;;6.20;99.90;;;;;;5153725;27;20058;-73
2022/04/15 02:38:27;;;;;;;31.92;12.10;;;6.20;99.90;;;;;;5153933;27;20132;-74
2022/04/15 02:40:52;;;;;;;34.70;11.93;;;6.20;99.90;;;;;;5135649;27;20047;-74
2022/04/15 02:43:20;;;;;;;27.75;10.70;;;6.20;99.90;;;;;;5153757;27;20481;-73
2022/04/15 02:45:46;;;;;;;28.90;11.05;;;6.20;99.90;;;;;;5136375;27;20444;-74
2022/04/15 02:48:13;;;;;;;26.40;11.30;;;6.30;99.90;;;;;;5153425;27;20046;-74
2022/04/15 02:50:39;;;;;;;28.92;11.05;;;6.40;99.90;;;;;;5136194;27;20280;-73
2022/04/15 02:53:06;;;;;;;28.13;10.38;;;6.40;99.90;;;;;;5139130;27;20055;-73
2022/04/15 02:55:32;;;;;;;31.37;11.77;;;6.40;99.90;;;;;;5157747;27;20050;-71
2022/04/15 02:57:57;;;;;;;27.15;10.75;;;6.50;99.90;;;;;;5157880;27;20280;-74
2022/04/15 03:00:23;;;;;;;30.52;11.77;;;6.50;99.90;;;;;;5157383;27;20038;-73
2022/04/15 03:02:49;;;;;;;33.50;11.07;;;6.50;99.90;;;;;;5157328;27;20034;-74
2022/04/15 03:05:15;;;;;;;28.80;9.80;;;6.60;99.90;;;;;;5157893;27;20053;-74
2022/04/15 03:07:40;;;;;;;23.00;9.80;;;6.70;99.90;;;;;;5138775;27;20091;-73
2022/04/15 03:10:07;;;;;;;29.05;9.27;;;6.80;99.90;;;;;;5157671;27;20114;-73
2022/04/15 03:12:34;;;;;;;23.75;9.65;;;6.80;99.90;;;;;;5121631;27;20569;-73
2022/04/15 03:15:01;;;;;;;25.50;9.75;;;6.90;99.90;;;;;;5156971;27;20050;-73
2022/04/15 03:17:26;;;;;;;27.08;9.73;;;7.00;99.90;;;;;;5121700;27;20511;-73
2022/04/15 03:19:52;;;;;;;31.30;10.20;;;7.00;99.90;;;;;;5157262;27;20066;-74
2022/04/15 03:22:18;;;;;;;24.83;9.75;;;7.00;99.90;;;;;;5139124;27;20031;-74
2022/04/15 03:24:44;;;;;;;27.38;10.82;;;7.10;99.90;;;;;;5121320;27;20052;-73
2022/04/15 03:27:10;;;;;;;22.60;9.05;;;7.00;99.90;;;;;;5120810;27;20399;-75
2022/04/15 03:29:36;;;;;;;29.63;10.15;;;7.10;99.90;;;;;;5157134;27;20121;-73
2022/04/15 03:32:02;;;;;;;26.35;10.23;;;7.10;99.90;;;;;;5121104;27;20413;-74
2022/04/15 03:34:28;;;;;;;26.73;10.38;;;7.10;99.90;;;;;;5138968;27;20042;-73
2022/04/15 03:36:53;;;;;;;27.23;10.23;;;7.00;99.90;;;;;;5137481;27;20130;-73
2022/04/15 03:39:19;;;;;;;26.33;10.45;;;7.10;99.90;;;;;;5138089;27;20062;-73
2022/04/15 03:41:45;;;;;;;27.88;10.30;;;7.10;99.90;;;;;;5137957;27;20043;-73
2022/04/15 03:44:10;;;;;;;24.92;9.45;;;7.10;99.90;;;;;;5137320;27;20049;-73
2022/04/15 03:46:38;;;;;;;24.95;10.32;;;7.10;99.90;;;;;;5138314;27;20046;-74
2022/04/15 03:49:04;;;;;;;27.20;9.90;;;7.10;99.90;;;;;;5087723;27;20098;-72
2022/04/15 03:51:30;;;;;;;25.48;10.07;;;7.10;99.90;;;;;;5138798;27;20370;-72
2022/04/15 03:53:56;;;;;;;28.02;9.98;;;7.10;99.90;;;;;;5156516;27;20039;-72
2022/04/15 03:56:22;;;;;;;29.90;10.25;;;7.10;99.90;;;;;;5137940;27;20154;-72
2022/04/15 03:58:47;;;;;;;25.38;9.52;;;7.10;99.90;;;;;;5103604;27;20055;-72
2022/04/15 04:01:13;;;;;;;39.35;10.75;;;7.10;99.90;;;;;;5155619;27;20038;-71
2022/04/15 04:03:39;;;;;;;25.15;9.77;;;7.10;99.90;;;;;;5156379;27;20047;-72
2022/04/15 04:06:04;;;;;;;21.73;9.60;;;7.10;99.90;;;;;;5137444;27;20047;-73
2022/04/15 04:08:30;;;;;;;27.95;9.63;;;7.10;99.90;;;;;;5155579;27;20046;-72
2022/04/15 04:10:56;;;;;;;24.25;9.52;;;7.10;99.90;;;;;;5137364;27;20086;-72
2022/04/15 04:13:22;;;;;;;27.35;8.77;;;7.10;99.90;;;;;;5137275;27;20085;-72
2022/04/15 04:15:48;;;;;;;25.73;9.82;;;7.10;99.90;;;;;;5137492;27;20432;-72
2022/04/15 04:18:17;;;;;;;28.38;10.73;;;7.10;99.90;;;;;;5155825;27;20099;-73
2022/04/15 04:20:43;;;;;;;26.75;10.10;;;7.20;99.90;;;;;;5155692;27;20078;-71
2022/04/15 04:23:09;;;;;;;26.95;10.13;;;7.20;99.90;;;;;;5136831;27;20066;-72
2022/04/15 04:25:35;;;;;;;26.25;9.32;;;7.20;99.90;;;;;;5137050;27;20078;-72
2022/04/15 04:28:01;;;;;;;28.88;10.00;;;7.20;99.90;;;;;;5136964;27;20088;-72
2022/04/15 04:30:26;;;;;;;25.90;8.95;;;7.20;99.90;;;;;;5137309;27;20054;-73
2022/04/15 04:32:52;;;;;;;27.58;9.50;;;7.30;99.90;;;;;;5155340;27;20050;-73
2022/04/15 04:35:20;;;;;;;24.60;9.15;;;7.20;99.90;;;;;;5136892;27;20045;-73
2022/04/15 04:37:46;;;;;;;28.60;9.00;;;7.30;99.90;;;;;;5119145;27;20459;-72
2022/04/15 04:40:14;;;;;;;23.80;9.10;;;7.30;99.90;;;;;;5119830;27;20057;-72
2022/04/15 04:42:40;;;;;;;;;;;7.40;99.90;;;;;;5155740;27;20117;-73
2022/04/15 04:45:06;;;;;;;25.92;9.20;;;7.30;99.90;;;;;;5155675;27;19919;-74
2022/04/15 04:47:33;;;;;;;21.73;8.88;;;7.30;99.90;;;;;;5119657;27;20099;-74
2022/04/15 04:50:01;;;;;;;27.63;9.88;;;7.40;99.90;;;;;;5138042;27;20370;-73
2022/04/15 04:52:27;;;;;;;23.17;9.13;;;7.40;99.90;;;;;;5137117;27;20559;-74
2022/04/15 04:54:53;;;;;;;28.33;9.90;;;7.40;99.90;;;;;;5119429;27;20050;-72
2022/04/15 04:57:19;;;;;;;27.52;10.27;;;7.40;99.90;;;;;;5136317;27;20118;-72
2022/04/15 04:59:44;;;;;;;26.10;9.30;;;7.50;99.90;;;;;;5120073;27;20066;-73
2022/04/15 05:02:12;;;;;;;24.52;9.60;;;7.50;99.90;;;;;;5155556;27;20137;-75
2022/04/15 05:04:40;;;;;;;30.73;9.98;;;7.50;99.90;;;;;;5155486;27;20042;-73
2022/04/15 05:07:05;;;;;;;24.40;9.35;;;7.50;99.90;;;;;;5136332;27;20095;-74
2022/04/15 05:09:31;;;;;;;25.65;9.80;;;7.50;99.90;;;;;;5155066;27;20042;-73
2022/04/15 05:11:57;;;;;;;18.95;8.10;;;7.50;99.90;;;;;;5136745;27;20447;-73
2022/04/15 05:14:23;;;;;;;22.02;9.30;;;7.60;99.90;;;;;;5154599;27;20500;-73
2022/04/15 05:16:48;;;;;;;32.88;9.70;;;7.60;99.90;;;;;;5103297;27;20067;-72
2022/04/15 05:19:14;;;;;;;20.15;8.27;;;7.60;99.90;;;;;;5119962;27;20050;-71
2022/04/15 05:21:40;;;;;;;23.70;10.98;;;7.70;99.90;;;;;;5136164;27;20138;-74
2022/04/15 05:24:08;;;;;;;20.92;8.98;;;7.70;99.90;;;;;;5155561;27;20050;-73
2022/04/15 05:26:34;;;;;;;23.70;8.73;;;7.70;99.90;;;;;;5136417;27;20046;-73
2022/04/15 05:29:01;;;;;;;21.30;9.83;;;7.70;99.90;;;;;;5154465;27;20058;-73
2022/04/15 05:31:26;;;;;;;21.23;9.90;;;7.70;99.90;;;;;;5135629;27;20284;-73
2022/04/15 05:33:52;;;;;;;26.88;9.25;;;7.70;99.90;;;;;;5154482;27;20086;-73
2022/04/15 05:36:18;;;;;;;26.67;9.68;;;7.70;99.90;;;;;;5135868;27;20137;-73
2022/04/15 05:38:44;;;;;;;29.33;11.07;;;7.80;99.90;;;;;;5135968;27;20050;-72
2022/04/15 05:41:09;;;;;;;26.48;9.93;;;7.80;99.90;;;;;;5135957;27;20050;-72
2022/04/15 05:43:37;;;;;;;26.40;10.25;;;7.80;99.90;;;;;;5153839;27;20083;-72
2022/04/15 05:46:04;;;;;;;27.60;11.27;;;7.80;99.90;;;;;;5119608;27;20061;-72
2022/04/15 05:48:30;;;;;;;26.00;11.05;;;7.80;99.90;;;;;;5135857;27;20038;-71
2022/04/15 05:50:55;;;;;;;31.20;13.43;;;7.80;99.90;;;;;;5154524;27;20047;-72
2022/04/15 05:53:21;;;;;;;24.65;10.82;;;7.80;99.90;;;;;;5156628;27;20436;-72
2022/04/15 05:55:47;;;;;;;27.45;11.32;;;7.90;99.90;;;;;;5154325;27;20121;-72
2022/04/15 05:58:13;;;;;;;28.27;11.05;;;7.90;99.90;;;;;;5136000;27;20405;-73
2022/04/15 06:00:39;;;;;;;26.90;13.25;;;7.90;99.90;;;;;;5135891;27;20106;-72
2022/04/15 06:03:07;;;;;;;28.25;10.98;;;8.00;99.90;;;;;;5154930;27;20043;-73
2022/04/15 06:05:32;;;;;;;29.83;12.65;;;8.00;99.90;;;;;;5135628;27;20034;-74
2022/04/15 06:07:58;;;;;;;25.77;10.52;;;8.10;99.90;;;;;;5136108;27;20114;-73
2022/04/15 06:10:24;;;;;;;25.00;11.25;;;8.20;99.90;;;;;;5135693;27;20038;-72
2022/04/15 06:13:08;;;;;;;21.10;9.25;;;8.30;99.90;;;;;;5135468;27;20042;-72
2022/04/15 06:15:40;;;;;;;23.60;9.85;;;8.40;99.90;;;;;;5153942;27;20046;-72
2022/04/15 06:18:07;;;;;;;21.20;7.95;;;8.40;99.90;;;;;;5154415;27;20046;-73
2022/04/15 06:20:33;;;;;;;20.60;10.00;;;8.30;99.90;;;;;;5153824;27;20062;-72
2022/04/15 06:22:58;;;;;;;16.40;6.72;;;8.30;99.90;;;;;;5153888;27;20135;-72
2022/04/15 06:25:24;;;;;;;17.88;7.63;;;8.30;99.90;;;;;;5137416;27;20082;-73
2022/04/15 06:27:51;;;;;;;18.88;8.00;;;8.40;99.90;;;;;;5139442;27;20043;-72
2022/04/15 06:30:19;;;;;;;18.63;8.60;;;8.40;99.90;;;;;;5139392;27;20117;-73
2022/04/15 06:32:45;;;;;;;16.10;5.43;;;8.40;99.90;;;;;;5122866;27;20138;-73
2022/04/15 06:35:11;;;;;;;15.85;5.93;;;8.40;99.90;;;;;;5122598;27;20082;-73
2022/04/15 06:37:38;;;;;;;12.15;5.70;;;8.50;99.90;;;;;;5139623;27;20082;-72
2022/04/15 06:40:04;;;;;;;;;;;8.50;99.90;;;;;;5140131;27;20328;-71
2022/04/15 06:42:34;;;;;;;15.10;6.15;;;8.50;99.90;;;;;;5157773;27;19959;-73
2022/04/15 06:45:00;;;;;;;11.43;5.60;;;8.40;99.90;;;;;;5157930;27;20042;-73
2022/04/15 06:47:26;;;;;;;15.63;7.00;;;8.30;99.90;;;;;;5157305;27;20047;-73
2022/04/15 06:49:52;;;;;;;15.50;6.68;;;8.30;99.90;;;;;;5139669;27;20057;-73
2022/04/15 06:52:20;;;;;;;12.95;6.03;;;8.20;99.90;;;;;;5121739;27;20442;-74
2022/04/15 06:54:46;;;;;;;15.15;7.75;;;8.20;99.90;;;;;;5139528;27;20077;-73
2022/04/15 06:57:12;;;;;;;14.45;6.72;;;8.20;99.90;;;;;;5139653;27;20454;-74
2022/04/15 06:59:39;;;;;;;14.63;6.20;;;8.20;99.90;;;;;;5157891;27;20081;-73
2022/04/15 07:02:05;;;;;;;;;;;8.20;99.90;;;;;;5158754;27;20046;-72
2022/04/15 07:04:32;;;;;;;17.45;7.90;;;8.20;99.90;;;;;;5140903;27;19919;-73
2022/04/15 07:06:58;;;;;;;13.32;6.90;;;8.10;99.90;;;;;;5122129;27;20117;-74
2022/04/15 07:09:24;;;;;;;14.95;7.03;;;8.00;99.90;;;;;;5157005;27;20054;-75
2022/04/15 07:11:50;;;;;;;15.30;7.43;;;7.90;99.90;;;;;;5139135;27;20042;-73
2022/04/15 07:14:17;;;;;;;11.80;5.85;;;8.00;99.90;;;;;;5157779;27;20038;-72
2022/04/15 07:16:43;;;;;;;13.10;6.32;;;7.90;99.90;;;;;;5138567;27;20056;-74
2022/04/15 07:19:08;;;;;;;12.18;5.97;;;7.90;99.90;;;;;;5138687;27;20125;-73
2022/04/15 07:21:35;;;;;;;15.23;6.55;;;8.00;99.90;;;;;;5157443;27;20100;-74
2022/04/15 07:24:01;;;;;;;14.70;6.70;;;7.90;99.90;;;;;;5139281;27;20392;-73
2022/04/15 07:26:27;;;;;;;17.42;7.22;;;7.90;99.90;;;;;;5157715;27;20125;-73
2022/04/15 07:28:52;;;;;;;15.35;6.95;;;7.90;99.90;;;;;;5121023;27;20137;-73
2022/04/15 07:31:18;;;;;;;15.20;6.90;;;8.00;99.90;;;;;;5138971;27;20125;-72
2022/04/15 07:33:48;;;;;;;15.82;7.15;;;7.90;99.90;;;;;;5156928;27;20041;-73
2022/04/15 07:38:59;;;;;;;14.00;6.18;;;7.90;99.90;;;;;;5138478;27;20533;-71
2022/04/15 07:41:24;;;;;;;14.93;5.95;;;7.90;99.90;;;;;;5156671;27;20078;-72
2022/04/15 07:43:50;;;;;;;14.35;7.15;;;8.10;99.90;;;;;;5138757;27;20126;-73
2022/04/15 07:46:16;;;;;;;12.98;6.15;;;7.90;99.90;;;;;;5156533;27;20462;-72
2022/04/15 07:48:42;;;;;;;12.25;5.65;;;7.90;99.90;;;;;;5138949;27;20054;-72
2022/04/15 07:51:08;;;;;;;15.80;6.95;;;8.00;99.90;;;;;;5138152;27;20111;-73
2022/04/15 07:53:34;;;;;;;13.45;6.72;;;8.00;99.90;;;;;;5138432;27;20053;-71
2022/04/15 07:55:59;;;;;;;17.08;7.03;;;8.10;99.90;;;;;;5156821;27;20058;-74
2022/04/15 07:58:25;;;;;;;13.18;6.70;;;7.90;99.90;;;;;;5138406;27;20363;-72
2022/04/15 08:00:51;;;;;;;18.13;9.02;;;8.00;99.90;;;;;;5156322;27;20479;-72
2022/04/15 08:03:21;;;;;;;18.25;8.10;;;8.10;99.90;;;;;;5120890;27;20039;-73
2022/04/15 08:05:48;;;;;;;14.57;6.90;;;8.00;99.90;;;;;;5138678;27;20482;-72
2022/04/15 08:08:13;;;;;;;16.38;7.68;;;8.10;99.90;;;;;;5138635;27;20509;-73
2022/04/15 08:10:40;;;;;;;18.27;7.55;;;8.00;99.90;;;;;;5138754;27;20039;-73
2022/04/15 08:13:06;;;;;;;20.70;7.65;;;8.10;99.90;;;;;;5138713;27;20486;-72
2022/04/15 08:15:32;;;;;;;17.88;7.43;;;8.20;99.90;;;;;;5139620;27;20049;-71
2022/04/15 08:17:58;;;;;;;18.10;7.63;;;8.20;99.90;;;;;;5163156;27;20051;-74
2022/04/15 08:20:24;;;;;;;22.30;8.77;;;8.10;99.90;;;;;;5114065;27;20047;-72
2022/04/15 08:22:49;;;;;;;17.90;9.10;;;8.10;99.90;;;;;;5147751;27;20050;-72
2022/04/15 08:25:15;;;;;;;22.63;8.40;;;8.20;99.90;;;;;;5129493;27;20080;-73
2022/04/15 08:27:41;;;;;;;21.13;9.13;;;8.20;99.90;;;;;;5149004;27;20066;-72
2022/04/15 08:30:07;;;;;;;24.80;9.15;;;8.20;99.90;;;;;;5167126;27;20046;-73
2022/04/15 08:32:33;;;;;;;24.47;9.07;;;8.40;99.90;;;;;;5131090;27;20107;-71
2022/04/15 08:35:07;;;;;;;27.08;8.70;;;8.40;99.90;;;;;;5163954;27;20134;-72
2022/04/15 08:37:34;;;;;;;22.50;9.23;;;8.40;99.90;;;;;;5164082;27;20106;-72
2022/04/15 08:40:00;;;;;;;25.83;9.43;;;8.40;99.90;;;;;;5163289;27;20445;-73
2022/04/15 08:42:27;;;;;;;27.17;10.47;;;8.60;99.90;;;;;;5124704;27;20063;-73
2022/04/15 08:44:54;;;;;;;23.48;10.07;;;8.30;99.90;;;;;;5158241;27;20082;-73
2022/04/15 08:47:21;;;;;;;30.20;12.20;;;8.50;99.90;;;;;;5121276;27;20491;-72
2022/04/15 08:49:48;;;;;;;28.95;11.02;;;8.50;99.90;;;;;;5120917;27;20046;-78
2022/04/15 08:52:17;;;;;;;26.67;12.05;;;8.50;99.90;;;;;;5137318;27;20452;-73
2022/04/15 08:54:44;;;;;;;26.10;9.98;;;8.60;99.90;;;;;;5137093;27;20038;-73
2022/04/15 08:57:10;;;;;;;27.25;10.30;;;8.80;99.90;;;;;;5138767;27;20066;-73
2022/04/15 08:59:40;;;;;;;27.73;10.73;;;8.90;99.90;;;;;;5160209;27;20053;-70
2022/04/15 09:02:06;;;;;;;27.50;10.77;;;9.00;99.90;;;;;;5160971;27;20786;-72
2022/04/15 09:04:32;;;;;;;29.58;11.52;;;9.10;99.90;;;;;;5143300;27;20046;-76
2022/04/15 09:07:02;;;;;;;25.95;9.80;;;9.20;99.90;;;;;;5161029;27;20035;-73
2022/04/15 09:09:32;;;;;;;26.80;11.85;;;9.30;99.90;;;;;;5162601;27;20042;-73
2022/04/15 09:12:03;;;;;;;33.05;12.30;;;9.30;99.90;;;;;;5163987;27;20046;-75
2022/04/15 09:14:29;;;;;;;27.17;11.15;;;9.40;99.90;;;;;;5164296;27;20042;-71
2022/04/15 09:16:55;;;;;;;34.75;11.55;;;9.50;99.90;;;;;;5161389;27;20042;-72
2022/04/15 09:19:21;;;;;;;28.98;11.38;;;9.50;99.90;;;;;;5162901;27;20038;-72
2022/04/15 09:21:58;;;;;;;27.95;11.43;;;9.40;99.90;;;;;;5143548;27;20421;-73
2022/04/15 09:24:42;;;;;;;31.33;13.27;;;9.60;99.90;;;;;;5160715;27;20046;-73
2022/04/15 09:27:08;;;;;;;34.78;16.70;;;9.50;99.90;;;;;;5162204;27;20429;-75
2022/04/15 09:29:35;;;;;;;28.63;11.65;;;9.10;99.90;;;;;;5141858;27;20089;-74
2022/04/15 09:32:09;;;;;;;33.10;14.15;;;9.20;99.90;;;;;;5126546;27;20050;-73
2022/04/15 09:34:55;;;;;;;33.97;13.27;;;9.30;99.90;;;;;;5140110;27;20434;-73
2022/04/15 09:37:22;;;;;;;25.77;11.43;;;9.30;99.90;;;;;;5160215;27;20490;-72
2022/04/15 09:40:06;;;;;;;;;;;9.60;99.90;;;;;;5161949;27;20062;-74
2022/04/15 09:42:36;;;;;;;27.77;10.50;;;9.70;99.90;;;;;;5143405;27;20063;-73
2022/04/15 09:45:30;;;;;;;30.90;11.32;;;9.80;99.90;;;;;;5161358;27;20062;-72
2022/04/15 09:48:02;;;;;;;29.08;11.23;;;10.10;99.90;;;;;;5143527;27;20043;-72
2022/04/15 09:50:42;;;;;;;28.80;11.35;;;9.90;99.90;;;;;;5143785;27;20049;-71
2022/04/15 09:53:09;;;;;;;27.15;10.98;;;10.00;99.90;;;;;;5143216;27;20039;-72
2022/04/15 09:55:38;;;;;;;27.25;11.50;;;10.20;99.90;;;;;;5126562;27;20077;-71
2022/04/15 09:58:11;;;;;;;27.05;11.93;;;10.30;99.90;;;;;;5142625;27;20047;-70
2022/04/15 10:00:39;;;;;;;28.60;12.55;;;10.20;99.90;;;;;;5164557;27;20431;-73
2022/04/15 10:03:14;;;;;;;31.25;13.45;;;10.20;99.90;;;;;;5131348;27;20047;-72
2022/04/15 10:05:42;;;;;;;27.23;11.80;;;9.90;99.90;;;;;;5132279;27;20486;-73
2022/04/15 10:08:09;;;;;;;;;;;9.90;99.90;;;;;;5130842;27;20382;-72
2022/04/15 10:10:35;;;;;;;23.80;9.90;;;10.10;99.90;;;;;;5163293;27;19919;-70
2022/04/15 10:13:04;;;;;;;25.33;9.85;;;10.30;99.90;;;;;;5161934;27;20038;-72
2022/04/15 10:15:32;;;;;;;23.50;10.43;;;10.30;99.90;;;;;;5160769;27;20038;-74
2022/04/15 10:18:01;;;;;;;;;;;10.40;99.90;;;;;;5127210;27;20054;-73
2022/04/15 10:20:31;;;;;;;25.83;11.55;;;10.40;99.90;;;;;;5142611;27;20417;-73
2022/04/15 10:23:05;;;;;;;24.30;10.80;;;10.40;99.90;;;;;;5142230;27;20110;-73
2022/04/15 10:25:32;;;;;;;27.90;11.02;;;10.30;99.90;;;;;;5160953;27;20129;-73
2022/04/15 10:28:10;;;;;;;24.58;11.00;;;10.50;99.90;;;;;;5159464;27;20046;-72
2022/04/15 10:30:36;;;;;;;27.20;11.77;;;10.70;99.90;;;;;;5159403;27;20372;-73
2022/04/15 10:33:02;;;;;;;26.50;10.35;;;10.80;99.90;;;;;;5141805;27;20053;-71
2022/04/15 10:35:29;;;;;;;28.35;11.50;;;10.90;99.90;;;;;;5140676;27;20043;-73
2022/04/15 10:38:01;;;;;;;26.38;11.27;;;11.10;99.90;;;;;;5139722;27;20051;-72
2022/04/15 10:40:30;;;;;;;21.83;10.70;;;11.20;99.90;;;;;;5140286;27;20103;-73
2022/04/15 10:43:04;;;;;;;26.85;12.48;;;11.20;99.90;;;;;;5158991;27;20093;-72
2022/04/15 10:45:34;;;;;;;28.50;11.10;;;10.60;99.90;;;;;;5124560;27;20483;-73
2022/04/15 10:48:02;;;;;;;24.85;11.02;;;10.60;99.90;;;;;;5125487;27;20039;-72
2022/04/15 10:50:30;;;;;;;19.75;8.88;;;10.90;99.90;;;;;;5125212;27;20594;-72
2022/04/15 10:53:16;;;;;;;18.77;8.48;;;11.20;99.90;;;;;;5161585;27;20050;-72
2022/04/15 10:55:43;;;;;;;18.77;8.57;;;11.30;99.90;;;;;;5142466;27;20049;-73
2022/04/15 10:58:13;;;;;;;20.60;9.07;;;11.40;99.90;;;;;;5142418;27;20133;-73
2022/04/15 11:03:26;;;;;;;20.48;8.25;;;11.80;99.90;;;;;;5159967;27;20581;-73
2022/04/15 11:05:57;;;;;;;16.77;7.18;;;11.70;99.90;;;;;;5124601;27;20047;-72
2022/04/15 11:08:26;;;;;;;20.65;7.22;;;11.60;99.90;;;;;;5159441;27;20115;-73
2022/04/15 11:10:51;;;;;;;20.23;7.38;;;11.70;99.90;;;;;;5141899;27;20401;-71
2022/04/15 11:13:24;;;;;;;18.67;8.10;;;11.70;99.90;;;;;;5123230;27;20043;-73
2022/04/15 11:16:18;;;;;;;21.30;8.57;;;11.80;99.90;;;;;;5141145;27;20047;-74
2022/04/15 11:19:00;;;;;;;14.35;7.05;;;11.20;99.90;;;;;;5130379;27;20043;-73
2022/04/15 11:21:35;;;;;;;14.35;6.90;;;11.80;99.90;;;;;;5156920;27;20034;-74
2022/04/15 11:24:13;;;;;;;16.10;6.15;;;11.60;99.90;;;;;;5141972;27;20147;-73
2022/04/15 11:26:42;;;;;;;16.95;5.95;;;11.70;99.90;;;;;;5157058;27;20046;-74
2022/04/15 11:29:09;;;;;;;12.80;5.60;;;12.10;99.90;;;;;;5174644;27;20138;-73
2022/04/15 11:31:37;;;;;;;16.15;7.57;;;12.10;99.90;;;;;;5137032;27;20046;-71
2022/04/15 11:34:11;;;;;;;11.88;6.80;;;11.80;99.90;;;;;;5173891;27;20051;-72
2022/04/15 11:36:42;;;;;;;14.35;6.53;;;11.70;99.90;;;;;;5117041;27;20058;-72
2022/04/15 11:39:10;;;;;;;16.35;5.97;;;11.60;99.90;;;;;;5141997;27;20122;-71
2022/04/15 11:41:45;;;;;;;13.63;6.82;;;12.10;99.90;;;;;;5139109;27;20046;-73
2022/04/15 11:44:11;;;;;;;12.55;6.15;;;11.60;99.90;;;;;;5138553;27;20035;-72
2022/04/15 11:46:37;;;;;;;13.63;6.95;;;11.90;99.90;;;;;;5138584;27;20151;-73
2022/04/15 11:49:04;;;;;;;17.52;7.10;;;12.00;99.90;;;;;;5157148;27;20470;-73
2022/04/15 11:51:30;;;;;;;16.95;8.70;;;11.60;99.90;;;;;;5156629;27;20050;-74
2022/04/15 11:53:59;;;;;;;17.17;6.95;;;11.30;99.90;;;;;;5138886;27;20045;-72
2022/04/15 11:56:29;;;;;;;13.82;7.60;;;11.80;99.90;;;;;;5138561;27;20043;-73
2022/04/15 11:58:57;;;;;;;17.63;7.05;;;12.10;99.90;;;;;;5138170;27;20052;-74
2022/04/15 12:01:33;;;;;;;15.00;7.15;;;12.30;99.90;;;;;;5138668;27;20046;-73
2022/04/15 12:03:59;;;;;;;17.27;7.15;;;12.30;99.90;;;;;;5121815;27;20525;-72
2022/04/15 12:06:26;;;;;;;16.67;7.43;;;12.30;99.90;;;;;;5137951;27;20085;-72
2022/04/15 12:08:53;;;;;;;18.35;7.70;;;12.10;99.90;;;;;;5157454;27;20486;-74
2022/04/15 12:11:24;;;;;;;21.58;8.48;;;12.00;99.90;;;;;;5138323;27;20121;-72
2022/04/15 12:13:59;;;;;;;16.33;7.40;;;12.10;99.90;;;;;;5121435;27;20149;-72
2022/04/15 12:16:27;;;;;;;18.73;8.38;;;12.40;99.90;;;;;;5120749;27;20501;-72
2022/04/15 12:18:53;;;;;;;15.52;8.13;;;12.40;99.90;;;;;;5156846;27;20047;-74
2022/04/15 12:21:20;;;;;;;14.60;7.47;;;12.60;99.90;;;;;;5155875;27;20501;-73
2022/04/15 12:24:05;;;;;;;;;;;12.50;99.90;;;;;;5138319;27;20607;-72
2022/04/15 12:26:47;;;;;;;15.07;7.45;;;12.40;99.90;;;;;;5156384;27;20026;-73
2022/04/15 12:32:22;;;;;;;15.85;7.95;;;12.60;99.90;;;;;;5140803;27;20054;-73
2022/04/15 12:35:10;;;;;;;16.15;7.88;;;12.60;99.90;;;;;;5155784;27;20426;-72
2022/04/15 12:37:50;;;;;;;19.63;9.00;;;12.10;99.90;;;;;;5136529;27;20058;-73
2022/04/15 12:40:22;;;;;;;16.75;7.90;;;12.20;99.90;;;;;;5121716;27;20058;-73
2022/04/15 12:42:49;;;;;;;19.15;8.68;;;12.10;99.90;;;;;;5119722;27;20432;-71
2022/04/15 12:45:21;;;;;;;14.43;8.15;;;12.30;99.90;;;;;;5138024;27;20047;-72
2022/04/15 12:48:09;;;;;;;18.67;8.73;;;12.50;99.90;;;;;;5156818;27;20046;-72
2022/04/15 12:50:36;;;;;;;15.23;8.35;;;12.40;99.90;;;;;;5156765;27;20534;-72
2022/04/15 12:53:16;;;;;;;20.30;9.02;;;12.30;99.90;;;;;;5137122;27;20078;-72
2022/04/15 12:55:42;;;;;;;17.70;8.10;;;11.90;99.90;;;;;;5155707;27;20054;-71